Time;durP1;ratioP1;P1;durP2;ratioP2;P2;SDS_P1;SDS_P2;PMS_P1;PMS_P2;Temp;Humidity;BMP_temperature;BMP_pressure;BME280_temperature;BME280_humidity;BME280_pressure;Samples;Min_cycle;Max_cycle;Signal;HPM_P1;HPM_P2
2022/12/02 00:02:29;;;;;;;24.52;11.77;;;;;;;3.83;72.85;100586.31;4504793;31;33589;-71
2022/12/02 00:05:01;;;;;;;27.40;12.95;;;;;;;4.12;71.72;100602.44;4512122;31;33624;-71
2022/12/02 00:07:28;;;;;;;25.75;13.43;;;;;;;3.83;72.64;100587.19;4511062;31;34512;-71
2022/12/02 00:09:55;;;;;;;23.77;12.60;;;;;;;4.07;71.85;100588.31;4504468;31;34023;-71
2022/12/02 00:12:26;;;;;;;23.48;12.55;;;;;;;4.46;70.34;100589.84;4512996;31;34664;-71
2022/12/02 00:14:56;;;;;;;24.00;12.18;;;;;;;4.64;69.83;100589.53;4493276;31;34975;-71
2022/12/02 00:17:24;;;;;;;27.42;12.82;;;;;;;4.78;69.39;100588.97;4513101;31;33357;-71
2022/12/02 00:19:52;;;;;;;27.27;14.60;;;;;;;4.47;70.02;100591.62;4503731;31;33719;-71
2022/12/02 00:22:20;;;;;;;23.77;13.07;;;;;;;4.11;71.04;100590.41;4512172;31;33684;-71
2022/12/02 00:24:47;;;;;;;25.60;13.32;;;;;;;4.10;71.39;100586.03;4507894;31;34144;-71
2022/12/02 00:27:17;;;;;;;25.88;13.07;;;;;;;4.09;71.55;100597.03;4512660;31;34626;-71
2022/12/02 00:29:44;;;;;;;23.17;12.18;;;;;;;3.46;73.41;100590.88;4513828;31;33361;-71
2022/12/02 00:32:12;;;;;;;28.17;12.93;;;;;;;3.00;75.71;100584.34;4513805;31;33965;-71
2022/12/02 00:34:39;;;;;;;28.27;14.32;;;;;;;2.78;77.00;100597.78;4512829;31;33314;-71
2022/12/02 00:37:06;;;;;;;29.92;15.98;;;;;;;2.94;76.77;100600.94;4515528;31;33736;-71
2022/12/02 00:39:34;;;;;;;26.40;13.45;;;;;;;3.23;75.53;100589.78;4507551;31;34559;-71
2022/12/02 00:42:01;;;;;;;27.45;13.62;;;;;;;3.95;72.83;100589.87;4509026;31;33823;-71
2022/12/02 00:47:15;;;;;;;24.08;12.65;;;;;;;4.79;69.11;100592.41;4513232;31;33441;-71
2022/12/02 00:49:42;;;;;;;27.55;13.48;;;;;;;4.80;68.53;100587.41;4504168;31;34028;-71
2022/12/02 00:52:10;;;;;;;26.35;13.32;;;;;;;4.80;67.95;100587.41;4507489;31;33845;-71
2022/12/02 00:54:38;;;;;;;24.00;12.52;;;;;;;4.91;67.65;100575.44;4510849;31;33513;-71
2022/12/02 00:57:06;;;;;;;23.55;12.90;;;;;;;5.13;66.25;100578.03;4505556;31;32313;-71
2022/12/02 00:59:33;;;;;;;26.12;13.15;;;;;;;4.92;66.50;100567.88;4509149;31;33789;-71
2022/12/02 01:02:01;;;;;;;27.55;13.38;;;;;;;4.89;66.50;100577.88;4514169;31;34198;-71
2022/12/02 01:04:28;;;;;;;23.38;13.27;;;;;;;4.61;67.38;100579.91;4512325;31;33687;-71
2022/12/02 01:06:55;;;;;;;24.95;13.82;;;;;;;4.51;67.48;100578.25;4511407;31;33887;-71
2022/12/02 01:09:23;;;;;;;27.27;14.48;;;;;;;3.42;71.88;100570.88;4514577;31;35342;-71
2022/12/02 01:11:52;;;;;;;27.33;13.20;;;;;;;3.75;71.67;100570.28;4506611;31;33017;-71
2022/12/02 01:14:19;;;;;;;24.67;13.35;;;;;;;4.08;70.45;100563.59;4503854;31;32897;-71
2022/12/02 01:16:47;;;;;;;25.10;13.05;;;;;;;4.31;69.49;100570.62;4506103;31;34690;-71
2022/12/02 01:19:14;;;;;;;30.55;15.20;;;;;;;4.45;69.16;100572.63;4512604;31;33923;-71
2022/12/02 01:21:42;;;;;;;30.23;15.32;;;;;;;4.43;69.10;100563.03;4506601;31;34503;-71
2022/12/02 01:24:10;;;;;;;27.42;13.20;;;;;;;4.51;68.62;100568.00;4508221;31;33335;-71
2022/12/02 01:26:37;;;;;;;26.42;13.68;;;;;;;4.65;68.23;100568.22;4513326;31;33783;-71
2022/12/02 01:29:06;;;;;;;24.98;13.55;;;;;;;4.71;67.95;100561.94;4512823;31;34778;-71
2022/12/02 01:31:34;;;;;;;26.92;14.18;;;;;;;4.84;67.49;100561.22;4509118;31;34725;-71
2022/12/02 01:34:01;;;;;;;26.45;13.48;;;;;;;4.56;68.24;100559.78;4507379;31;33489;-71
2022/12/02 01:36:29;;;;;;;22.75;13.18;;;;;;;3.82;70.58;100558.87;4503946;31;34057;-71
2022/12/02 01:38:56;;;;;;;26.25;13.60;;;;;;;4.09;70.06;100558.59;4505804;31;34741;-71
2022/12/02 01:41:24;;;;;;;28.50;15.20;;;;;;;4.18;69.62;100549.88;4504979;31;33904;-71
2022/12/02 01:43:51;;;;;;;28.30;15.10;;;;;;;4.33;69.47;100548.56;4512343;31;34327;-71
2022/12/02 01:46:20;;;;;;;30.55;16.85;;;;;;;4.20;70.36;100549.22;4516647;31;33417;-71
2022/12/02 01:48:48;;;;;;;33.42;17.60;;;;;;;4.19;70.37;100541.41;4509011;31;34424;-71
2022/12/02 01:51:16;;;;;;;34.20;17.35;;;;;;;4.18;70.46;100548.19;4511781;31;34626;-71
2022/12/02 01:53:45;;;;;;;32.33;16.70;;;;;;;4.28;70.33;100544.72;4505401;31;33619;-71
2022/12/02 01:56:13;;;;;;;32.70;16.83;;;;;;;4.21;70.82;100550.09;4508136;31;34160;-71
2022/12/02 01:58:40;;;;;;;31.85;16.17;;;;;;;3.55;73.59;100548.09;4512250;31;33627;-71
2022/12/02 02:01:28;;;;;;;32.10;16.92;;;;;;;4.13;71.60;100546.91;4512117;31;34560;-71
2022/12/02 02:03:56;;;;;;;31.48;15.88;;;;;;;4.57;70.07;100541.06;4509854;31;33376;-71
2022/12/02 02:06:25;;;;;;;29.10;15.38;;;;;;;4.58;69.65;100545.41;4509064;31;34587;-71
2022/12/02 02:08:54;;;;;;;30.88;16.23;;;;;;;4.39;70.15;100541.38;4502917;31;34472;-71
2022/12/02 02:11:22;;;;;;;32.38;15.48;;;;;;;4.29;70.39;100549.09;4507787;31;33187;-71
2022/12/02 02:13:54;;;;;;;32.83;15.07;;;;;;;4.26;70.73;100549.72;4496349;31;33426;-71
2022/12/02 02:16:22;;;;;;;27.73;14.23;;;;;;;4.12;71.01;100552.84;4513989;31;33715;-71
2022/12/02 02:18:49;;;;;;;26.90;14.10;;;;;;;4.11;71.00;100554.50;4503978;31;34328;-71
2022/12/02 02:21:22;;;;;;;26.30;13.82;;;;;;;4.06;71.26;100555.78;4513108;31;33631;-71
2022/12/02 02:23:50;;;;;;;30.67;15.02;;;;;;;4.52;69.92;100554.41;4505550;31;33507;-71
2022/12/02 02:26:17;;;;;;;26.67;15.20;;;;;;;4.34;70.09;100555.47;4508460;31;33743;-71
2022/12/02 02:28:46;;;;;;;26.55;14.23;;;;;;;4.12;71.23;100560.53;4503587;31;34067;-71
2022/12/02 02:31:13;;;;;;;30.50;16.45;;;;;;;4.23;71.49;100554.63;4502430;31;33937;-71
2022/12/02 02:33:42;;;;;;;32.53;14.75;;;;;;;4.39;70.61;100554.19;4504245;31;33219;-71
2022/12/02 02:36:10;;;;;;;32.03;16.02;;;;;;;4.41;71.26;100565.47;4507376;31;34584;-71
2022/12/02 02:38:37;;;;;;;30.88;15.05;;;;;;;4.46;71.26;100553.91;4502877;31;33887;-71
2022/12/02 02:41:06;;;;;;;30.67;14.13;;;;;;;4.33;73.12;100558.81;4500333;31;34148;-71
2022/12/02 02:43:34;;;;;;;32.45;14.07;;;;;;;4.37;72.51;100560.88;4509183;31;34165;-71
2022/12/02 02:46:02;;;;;;;26.90;13.98;;;;;;;4.46;72.60;100563.25;4505984;31;33957;-71
2022/12/02 02:48:30;;;;;;;27.90;14.70;;;;;;;4.34;73.28;100558.94;4505184;31;34015;-71
2022/12/02 02:50:57;;;;;;;30.83;15.48;;;;;;;4.47;73.03;100550.56;4502306;31;34052;-71
2022/12/02 02:53:25;;;;;;;27.50;14.48;;;;;;;4.39;73.06;100551.63;4510514;31;33475;-71
2022/12/02 02:55:54;;;;;;;29.77;15.55;;;;;;;4.58;72.57;100547.97;4503794;31;34508;-71
2022/12/02 02:58:23;;;;;;;28.87;14.40;;;;;;;4.44;72.98;100550.34;4515987;31;34670;-71
2022/12/02 03:00:57;;;;;;;29.02;14.20;;;;;;;4.42;72.51;100551.84;4515862;31;34507;-71
2022/12/02 03:03:29;;;;;;;30.35;14.45;;;;;;;4.67;71.54;100541.87;4512196;31;34265;-71
2022/12/02 03:05:58;;;;;;;30.65;13.90;;;;;;;4.32;72.28;100545.09;4513249;31;34391;-71
2022/12/02 03:08:28;;;;;;;30.12;14.40;;;;;;;4.66;71.19;100540.12;4502204;31;33911;-71
2022/12/02 03:10:55;;;;;;;30.02;14.00;;;;;;;4.32;72.30;100546.75;4509486;31;33927;-71
2022/12/02 03:13:23;;;;;;;28.55;14.48;;;;;;;4.65;71.24;100548.56;4504451;31;33510;-71
2022/12/02 03:15:51;;;;;;;29.55;14.65;;;;;;;4.41;71.82;100544.94;4504627;31;34417;-71
2022/12/02 03:18:18;;;;;;;25.73;12.93;;;;;;;4.50;71.21;100545.69;4504842;31;32613;-71
2022/12/02 03:20:46;;;;;;;26.80;13.52;;;;;;;4.43;71.21;100540.84;4510382;31;34553;-71
2022/12/02 03:23:14;;;;;;;27.17;13.45;;;;;;;4.42;71.43;100540.69;4505502;31;33364;-71
2022/12/02 03:25:42;;;;;;;26.50;12.35;;;;;;;4.55;70.71;100538.34;4503210;31;32467;-71
2022/12/02 03:28:10;;;;;;;25.37;13.40;;;;;;;4.67;70.32;100533.31;4515142;31;32522;-71
2022/12/02 03:30:39;;;;;;;28.70;13.80;;;;;;;4.68;70.12;100535.13;4514574;31;33840;-71
2022/12/02 03:33:06;;;;;;;24.67;12.98;;;;;;;4.05;72.40;100533.47;4502173;31;33642;-71
2022/12/02 03:35:34;;;;;;;28.08;13.95;;;;;;;4.66;70.22;100529.84;4510006;31;35332;-71
2022/12/02 03:38:01;;;;;;;25.17;12.70;;;;;;;4.48;70.33;100530.94;4503159;31;33900;-71
2022/12/02 03:40:29;;;;;;;28.73;13.70;;;;;;;4.49;70.36;100537.88;4506597;31;35063;-71
2022/12/02 03:42:57;;;;;;;26.67;13.70;;;;;;;4.40;70.78;100532.88;4514228;31;33955;-71
2022/12/02 03:45:24;;;;;;;26.85;11.73;;;;;;;4.61;70.19;100532.81;4508171;31;34222;-71
2022/12/02 03:47:51;;;;;;;23.87;12.50;;;;;;;4.79;69.10;100529.16;4502914;31;33576;-71
2022/12/02 03:50:20;;;;;;;26.42;12.27;;;;;;;4.58;70.09;100524.87;4503219;31;33967;-71
2022/12/02 03:52:48;;;;;;;30.00;13.68;;;;;;;4.68;69.65;100524.84;4500612;31;33979;-71
2022/12/02 03:55:15;;;;;;;25.48;14.15;;;;;;;4.85;69.36;100529.66;4504317;31;33922;-72
2022/12/02 03:57:42;;;;;;;25.67;12.90;;;;;;;5.15;68.14;100522.53;4507921;31;33693;-71
2022/12/02 04:00:11;;;;;;;27.08;14.55;;;;;;;4.65;69.19;100529.72;4500047;31;34467;-71
2022/12/02 04:02:42;;;;;;;26.70;12.32;;;;;;;4.59;69.35;100529.25;4510073;31;33592;-71
2022/12/02 04:05:10;;;;;;;26.90;13.38;;;;;;;4.52;70.17;100531.31;4516695;31;34932;-71
2022/12/02 04:07:37;;;;;;;26.25;12.85;;;;;;;4.81;69.34;100535.31;4516118;31;34331;-71
2022/12/02 04:10:06;;;;;;;27.15;12.23;;;;;;;4.47;70.19;100540.31;4512245;31;33683;-71
2022/12/02 04:12:33;;;;;;;23.27;12.80;;;;;;;4.99;69.00;100538.44;4517043;31;33198;-71
2022/12/02 04:15:00;;;;;;;24.80;12.90;;;;;;;4.91;68.80;100535.25;4515886;31;33709;-71
2022/12/02 04:17:28;;;;;;;23.52;13.00;;;;;;;4.50;70.24;100549.91;4513750;31;33814;-71
2022/12/02 04:19:55;;;;;;;27.48;14.43;;;;;;;4.58;70.83;100547.97;4514341;31;34029;-71
2022/12/02 04:22:23;;;;;;;25.15;13.40;;;;;;;4.81;69.46;100543.03;4508089;31;33730;-71
2022/12/02 04:24:50;;;;;;;26.40;12.57;;;;;;;4.63;69.70;100536.41;4513038;31;33913;-71
2022/12/02 04:27:18;;;;;;;24.63;13.45;;;;;;;4.83;69.23;100540.56;4503866;31;33879;-71
2022/12/02 04:29:46;;;;;;;27.17;12.85;;;;;;;4.78;69.44;100537.63;4511748;31;33346;-71
2022/12/02 04:32:13;;;;;;;25.65;12.37;;;;;;;5.07;68.04;100531.31;4510090;31;33165;-71
2022/12/02 04:34:40;;;;;;;23.38;11.90;;;;;;;4.76;68.97;100538.28;4508120;31;33658;-71
2022/12/02 04:37:08;;;;;;;28.27;12.45;;;;;;;4.51;69.84;100539.78;4503867;31;33887;-71
2022/12/02 04:39:35;;;;;;;24.37;13.02;;;;;;;4.65;69.40;100537.44;4514378;31;34337;-71
2022/12/02 04:42:03;;;;;;;26.02;12.88;;;;;;;4.90;68.54;100541.16;4516526;31;33329;-71
2022/12/02 04:44:30;;;;;;;26.80;12.45;;;;;;;4.47;69.79;100540.31;4508057;31;33500;-71
2022/12/02 04:46:58;;;;;;;23.25;12.80;;;;;;;4.66;69.08;100541.78;4516975;31;34803;-71
2022/12/02 04:49:25;;;;;;;27.45;12.95;;;;;;;4.76;69.10;100541.75;4508989;31;33745;-71
2022/12/02 04:51:52;;;;;;;24.42;13.68;;;;;;;4.64;69.52;100533.09;4515929;31;34110;-71
2022/12/02 04:54:20;;;;;;;26.17;13.85;;;;;;;4.73;69.04;100544.06;4515845;31;34643;-71
2022/12/02 04:56:47;;;;;;;26.65;12.93;;;;;;;4.61;69.57;100532.81;4516989;31;33836;-71
2022/12/02 04:59:15;;;;;;;26.23;12.73;;;;;;;4.82;69.14;100531.97;4505833;31;34555;-71
2022/12/02 05:01:42;;;;;;;27.10;13.95;;;;;;;4.97;68.62;100539.97;4511970;31;33977;-71
2022/12/02 05:04:10;;;;;;;26.62;13.60;;;;;;;4.97;68.57;100541.66;4509402;31;34549;-71
2022/12/02 05:06:37;;;;;;;26.42;14.15;;;;;;;5.16;68.04;100537.19;4516526;31;33563;-71
2022/12/02 05:09:05;;;;;;;26.90;13.23;;;;;;;4.82;68.94;100543.91;4515948;31;33938;-71
2022/12/02 05:11:32;;;;;;;27.30;14.82;;;;;;;4.87;68.41;100540.94;4516535;31;33373;-71
2022/12/02 05:14:03;;;;;;;26.08;14.02;;;;;;;4.78;68.85;100542.75;4509860;31;33752;-71
2022/12/02 05:16:30;;;;;;;26.60;13.10;;;;;;;4.88;68.49;100540.12;4510703;31;33409;-71
2022/12/02 05:18:58;;;;;;;26.75;13.90;;;;;;;5.08;67.84;100543.38;4513350;31;33874;-71
2022/12/02 05:21:25;;;;;;;30.40;15.05;;;;;;;5.00;67.55;100545.34;4513465;31;34196;-71
2022/12/02 05:23:53;;;;;;;27.83;14.27;;;;;;;5.10;67.52;100547.88;4516384;31;34096;-71
2022/12/02 05:26:20;;;;;;;26.00;14.77;;;;;;;5.11;67.23;100548.75;4506487;31;33667;-71
2022/12/02 05:28:47;;;;;;;32.30;14.98;;;;;;;5.44;66.03;100547.91;4512628;31;33689;-71
2022/12/02 05:31:16;;;;;;;24.27;12.63;;;;;;;4.99;67.58;100547.81;4512199;31;33507;-71
2022/12/02 05:33:43;;;;;;;28.38;13.60;;;;;;;5.11;67.68;100543.62;4516212;31;33796;-71
2022/12/02 05:36:11;;;;;;;26.62;13.62;;;;;;;5.06;67.72;100548.41;4515112;31;34115;-71
2022/12/02 05:38:39;;;;;;;27.20;12.40;;;;;;;5.30;66.63;100546.84;4508701;31;33503;-71
2022/12/02 05:41:06;;;;;;;29.65;13.43;;;;;;;5.32;66.71;100539.28;4503296;31;34138;-71
2022/12/02 05:43:38;;;;;;;26.50;13.25;;;;;;;4.99;67.45;100542.69;4515253;31;34040;-71
2022/12/02 05:46:16;;;;;;;27.48;13.57;;;;;;;5.45;66.41;100544.59;4514243;31;33663;-71
2022/12/02 05:48:44;;;;;;;32.72;14.93;;;;;;;5.35;66.55;100541.16;4505187;31;33668;-71
2022/12/02 05:51:16;;;;;;;29.55;14.63;;;;;;;5.32;66.28;100550.44;4513612;31;33744;-71
2022/12/02 05:53:45;;;;;;;27.80;13.98;;;;;;;5.12;66.90;100540.31;4505765;31;35404;-71
2022/12/02 05:56:22;;;;;;;29.15;13.82;;;;;;;5.15;66.88;100544.78;4508163;31;34385;-71
2022/12/02 05:58:50;;;;;;;25.48;12.70;;;;;;;4.99;67.14;100547.81;4511929;31;34899;-71
2022/12/02 06:01:38;;;;;;;30.75;13.98;;;;;;;4.59;68.39;100547.19;4506788;31;33353;-71
2022/12/02 06:04:21;;;;;;;27.83;13.32;;;;;;;4.93;67.45;100551.69;4509736;31;33953;-71
2022/12/02 06:06:51;;;;;;;29.20;13.57;;;;;;;5.08;66.93;100553.66;4515138;31;33773;-70
2022/12/02 06:09:25;;;;;;;31.48;13.82;;;;;;;4.99;67.47;100560.66;4514310;31;34271;-71
2022/12/02 06:11:52;;;;;;;26.75;13.23;;;;;;;4.83;67.88;100556.88;4509190;31;34093;-71
2022/12/02 06:14:30;;;;;;;26.12;13.73;;;;;;;5.15;66.73;100558.50;4509041;31;33707;-71
2022/12/02 06:16:59;;;;;;;27.87;13.62;;;;;;;5.21;66.55;100560.66;4499691;31;34680;-71
2022/12/02 06:19:41;;;;;;;26.48;13.43;;;;;;;5.17;66.54;100564.66;4499687;31;33903;-71
2022/12/02 06:22:13;;;;;;;28.15;13.88;;;;;;;5.13;66.87;100562.63;4505101;31;33523;-71
2022/12/02 06:24:40;;;;;;;28.70;14.35;;;;;;;5.03;66.97;100572.94;4510075;31;34595;-71
2022/12/02 06:27:11;;;;;;;24.48;13.30;;;;;;;5.21;66.42;100571.81;4513778;31;34773;-71
2022/12/02 06:29:45;;;;;;;29.48;13.88;;;;;;;4.93;67.19;100569.66;4515073;31;33959;-72
2022/12/02 06:32:20;;;;;;;32.80;14.32;;;;;;;5.02;67.24;100573.72;4503244;31;33188;-73
2022/12/02 06:34:49;;;;;;;29.85;15.00;;;;;;;5.19;66.83;100578.50;4506299;31;34310;-72
2022/12/02 06:37:22;;;;;;;33.30;15.18;;;;;;;5.12;66.90;100576.25;4512141;31;33655;-72
2022/12/02 06:39:55;;;;;;;29.73;14.65;;;;;;;5.22;66.89;100578.75;4510286;31;34116;-73
2022/12/02 06:42:42;;;;;;;27.50;12.37;;;;;;;5.10;67.12;100576.13;4509172;31;33510;-72
2022/12/02 06:45:13;;;;;;;27.45;14.63;;;;;;;5.10;67.58;100582.94;4501493;31;34438;-72
2022/12/02 06:47:54;;;;;;;28.38;13.62;;;;;;;5.13;67.50;100588.31;4512012;31;34307;-72
2022/12/02 06:50:34;;;;;;;30.17;14.05;;;;;;;5.13;67.15;100593.44;4514832;31;32555;-72
2022/12/02 06:53:25;;;;;;;26.58;13.00;;;;;;;5.09;67.60;100588.84;4509344;31;34139;-72
2022/12/02 06:55:57;;;;;;;28.65;14.98;;;;;;;4.62;69.50;100597.09;4507338;31;34080;-72
2022/12/02 06:58:45;;;;;;;35.25;15.80;;;;;;;5.01;67.88;100583.09;4498888;31;33952;-72
2022/12/02 07:01:22;;;;;;;24.35;12.98;;;;;;;5.21;67.56;100584.66;4511005;31;34034;-72
2022/12/02 07:04:03;;;;;;;30.12;13.98;;;;;;;5.24;67.59;100586.59;4506945;31;32753;-72
2022/12/02 07:06:33;;;;;;;30.23;14.60;;;;;;;5.14;67.40;100592.69;4506184;31;33414;-73
2022/12/02 07:09:07;;;;;;;28.33;14.32;;;;;;;5.24;66.53;100587.47;4501969;31;33915;-72
2022/12/02 07:11:52;;;;;;;28.02;13.45;;;;;;;5.18;66.90;100587.00;4498737;31;33821;-72
2022/12/02 07:14:25;;;;;;;29.45;13.82;;;;;;;5.40;66.20;100586.09;4505713;31;34107;-72
2022/12/02 07:16:54;;;;;;;27.00;14.15;;;;;;;5.37;66.08;100596.13;4502423;31;34681;-72
2022/12/02 07:19:24;;;;;;;30.88;14.02;;;;;;;5.26;66.68;100596.19;4504431;31;33945;-72
2022/12/02 07:21:51;;;;;;;29.67;14.20;;;;;;;5.26;66.35;100596.19;4507478;31;33751;-72
2022/12/02 07:24:20;;;;;;;29.50;14.43;;;;;;;5.63;64.96;100593.91;4511340;31;33893;-72
2022/12/02 07:26:48;;;;;;;24.50;13.02;;;;;;;5.57;64.95;100593.44;4515405;31;33518;-73
2022/12/02 07:29:26;;;;;;;30.05;14.25;;;;;;;5.36;65.83;100596.94;4505579;31;33733;-73
2022/12/02 07:31:54;;;;;;;29.70;14.57;;;;;;;5.52;65.35;100594.75;4510229;31;33735;-72
2022/12/02 07:34:21;;;;;;;32.80;14.75;;;;;;;5.39;65.71;100607.44;4510686;31;33302;-73
2022/12/02 07:36:49;;;;;;;29.70;14.60;;;;;;;5.27;66.01;100603.16;4505301;31;33928;-73
2022/12/02 07:39:16;;;;;;;27.67;14.10;;;;;;;5.89;64.35;100605.28;4514058;31;34599;-73
2022/12/02 07:41:44;;;;;;;32.50;14.70;;;;;;;5.66;64.36;100598.38;4512298;31;34896;-73
2022/12/02 07:44:11;;;;;;;30.40;14.80;;;;;;;5.56;64.55;100596.78;4513317;31;34233;-72
2022/12/02 07:46:39;;;;;;;27.70;14.18;;;;;;;5.28;65.79;100604.91;4516253;31;34741;-72
2022/12/02 07:49:06;;;;;;;27.20;14.77;;;;;;;5.42;64.73;100602.53;4514987;31;33874;-72
2022/12/02 07:51:34;;;;;;;31.45;14.75;;;;;;;5.66;63.96;100599.31;4503410;31;34225;-72
2022/12/02 07:54:02;;;;;;;29.35;13.98;;;;;;;5.35;65.30;100607.97;4500403;31;33449;-72
2022/12/02 07:56:30;;;;;;;28.33;14.52;;;;;;;5.75;63.60;100598.22;4511269;31;33928;-72
2022/12/02 07:58:57;;;;;;;25.40;13.05;;;;;;;5.34;64.69;100603.63;4514511;31;33125;-72
2022/12/02 08:01:41;;;;;;;25.88;13.27;;;;;;;5.18;65.80;100602.41;4511826;31;33739;-72
2022/12/02 08:04:08;;;;;;;27.05;13.70;;;;;;;5.59;64.28;100602.16;4504276;31;33360;-72
2022/12/02 08:06:36;;;;;;;29.33;14.27;;;;;;;5.19;65.36;100604.19;4510874;31;34436;-72
2022/12/02 08:09:07;;;;;;;28.40;13.62;;;;;;;5.04;65.79;100602.97;4513693;31;33094;-72
2022/12/02 08:11:35;;;;;;;34.70;13.45;;;;;;;5.25;65.36;100607.25;4515521;31;34397;-72
2022/12/02 08:14:03;;;;;;;29.45;14.27;;;;;;;5.67;63.95;100608.78;4516512;31;34336;-72
2022/12/02 08:16:30;;;;;;;27.85;14.15;;;;;;;5.50;65.83;100601.44;4510008;31;34175;-72
2022/12/02 08:19:00;;;;;;;29.23;13.70;;;;;;;5.77;65.27;100601.78;4515935;31;33887;-72
2022/12/02 08:21:29;;;;;;;27.27;14.15;;;;;;;5.54;63.88;100600.91;4507847;31;32101;-72
2022/12/02 08:23:56;;;;;;;27.27;13.57;;;;;;;5.74;64.04;100598.97;4507666;31;33000;-72
2022/12/02 08:26:24;;;;;;;29.42;13.70;;;;;;;5.67;63.95;100601.06;4501357;31;34324;-72
2022/12/02 08:28:52;;;;;;;24.15;13.00;;;;;;;6.02;62.55;100610.63;4503623;31;33780;-72
2022/12/02 08:31:21;;;;;;;25.42;13.55;;;;;;;5.87;62.62;100604.28;4505948;31;33688;-72
2022/12/02 08:33:50;;;;;;;29.35;15.43;;;;;;;5.69;63.98;100604.66;4517296;31;33683;-72
2022/12/02 08:36:17;;;;;;;27.73;13.90;;;;;;;5.70;63.60;100600.44;4509860;31;34259;-72
2022/12/02 08:38:45;;;;;;;29.70;14.63;;;;;;;5.56;64.28;100607.06;4512669;31;34572;-72
2022/12/02 08:41:12;;;;;;;28.70;13.77;;;;;;;5.53;64.75;100605.97;4504853;31;33636;-72
2022/12/02 08:43:41;;;;;;;28.10;13.32;;;;;;;5.68;63.71;100610.59;4516533;31;33984;-72
2022/12/02 08:46:09;;;;;;;31.52;14.35;;;;;;;5.47;64.18;100604.69;4505007;31;33494;-72
2022/12/02 08:48:37;;;;;;;25.62;14.10;;;;;;;5.34;65.18;100609.66;4507497;31;33921;-72
2022/12/02 08:51:05;;;;;;;28.58;12.85;;;;;;;5.13;65.97;100608.84;4515015;31;34564;-72
2022/12/02 08:53:33;;;;;;;28.33;13.90;;;;;;;5.72;64.45;100610.06;4511978;31;33598;-72
2022/12/02 08:56:01;;;;;;;24.35;13.57;;;;;;;5.63;65.28;100613.59;4514979;31;34424;-72
2022/12/02 08:58:28;;;;;;;25.10;13.05;;;;;;;5.68;65.83;100615.75;4508278;31;34200;-72
2022/12/02 09:00:55;;;;;;;28.25;14.38;;;;;;;5.53;66.46;100606.84;4513462;31;34390;-72
2022/12/02 09:03:23;;;;;;;29.12;14.15;;;;;;;5.48;66.10;100606.47;4503652;31;32574;-72
2022/12/02 09:05:50;;;;;;;26.83;13.48;;;;;;;5.59;65.99;100611.56;4512212;31;33347;-72
2022/12/02 09:08:18;;;;;;;27.60;14.02;;;;;;;5.51;66.12;100608.41;4516335;31;34546;-72
2022/12/02 09:10:45;;;;;;;26.92;13.88;;;;;;;6.10;64.83;100609.53;4508038;31;33876;-72
2022/12/02 09:13:13;;;;;;;32.10;14.95;;;;;;;6.26;64.11;100615.84;4507198;31;34150;-72
2022/12/02 09:15:40;;;;;;;28.83;13.30;;;;;;;5.69;66.22;100607.22;4516531;31;34470;-72
2022/12/02 09:18:08;;;;;;;27.15;12.88;;;;;;;5.87;65.51;100601.72;4510452;31;34047;-72
2022/12/02 09:20:41;;;;;;;27.05;13.60;;;;;;;5.93;65.44;100612.50;4515152;31;34280;-72
2022/12/02 09:23:09;;;;;;;29.15;15.13;;;;;;;5.59;66.58;100609.00;4510342;31;32168;-72
2022/12/02 09:25:36;;;;;;;36.38;14.52;;;;;;;5.90;65.68;100607.09;4507732;31;34096;-72
2022/12/02 09:28:05;;;;;;;27.87;14.30;;;;;;;6.15;64.75;100606.41;4513358;31;33877;-72
2022/12/02 09:30:33;;;;;;;29.05;15.35;;;;;;;6.38;63.90;100615.88;4510664;31;34483;-72
2022/12/02 09:33:00;;;;;;;26.17;13.70;;;;;;;6.23;64.54;100607.88;4504817;31;34819;-72
2022/12/02 09:35:27;;;;;;;26.98;13.30;;;;;;;5.85;65.48;100610.97;4512476;31;33900;-72
2022/12/02 09:37:55;;;;;;;27.83;13.68;;;;;;;5.77;65.65;100606.94;4507276;31;33843;-72
2022/12/02 09:40:22;;;;;;;24.70;13.60;;;;;;;5.70;65.56;100609.03;4514017;31;34383;-72
2022/12/02 09:42:50;;;;;;;29.67;13.38;;;;;;;5.87;64.40;100618.06;4502580;31;32651;-72
2022/12/02 09:45:18;;;;;;;26.40;13.80;;;;;;;6.33;63.40;100610.34;4506115;31;33753;-72
2022/12/02 09:47:45;;;;;;;26.00;12.73;;;;;;;5.92;65.19;100613.25;4511188;31;33886;-72
2022/12/02 09:50:13;;;;;;;30.55;13.73;;;;;;;5.88;64.95;100611.22;4506793;31;33738;-73
2022/12/02 09:52:42;;;;;;;30.60;13.68;;;;;;;6.23;63.43;100610.47;4509018;31;33543;-72
2022/12/02 09:55:11;;;;;;;29.25;13.38;;;;;;;6.15;63.54;100607.31;4500633;31;33938;-72
2022/12/02 09:57:39;;;;;;;27.13;13.68;;;;;;;6.42;62.51;100597.28;4509441;31;34610;-72
2022/12/02 10:00:19;;;;;;;29.77;14.25;;;;;;;6.26;63.59;100600.41;4508396;31;33914;-72
2022/12/02 10:02:49;;;;;;;29.85;14.52;;;;;;;6.21;64.41;100606.87;4514509;31;34285;-72
2022/12/02 10:05:19;;;;;;;28.48;14.55;;;;;;;6.40;64.18;100591.12;4515674;31;34549;-72
2022/12/02 10:07:47;;;;;;;30.60;14.60;;;;;;;6.10;65.37;100599.25;4496881;31;34675;-72
2022/12/02 10:10:19;;;;;;;29.20;14.27;;;;;;;6.52;64.40;100604.00;4513239;31;34134;-72
2022/12/02 10:12:46;;;;;;;27.77;13.50;;;;;;;6.57;63.89;100607.81;4503377;31;34375;-72
2022/12/02 10:15:18;;;;;;;26.87;14.57;;;;;;;6.40;64.88;100599.75;4513116;31;35320;-72
2022/12/02 10:17:46;;;;;;;27.65;13.93;;;;;;;6.37;65.27;100604.66;4499558;31;33791;-72
2022/12/02 10:20:25;;;;;;;29.45;15.20;;;;;;;6.70;64.35;100600.19;4500131;31;33883;-72
2022/12/02 10:23:13;;;;;;;29.87;14.02;;;;;;;6.43;65.39;100605.12;4506487;31;36235;-72
2022/12/02 10:26:05;;;;;;;28.25;13.77;;;;;;;6.66;63.83;100598.19;4505140;31;34540;-72
2022/12/02 10:28:35;;;;;;;30.70;14.20;;;;;;;6.47;65.16;100602.00;4499257;31;34715;-72
2022/12/02 10:31:13;;;;;;;33.60;13.90;;;;;;;6.39;65.85;100600.50;4512073;31;33882;-72
2022/12/02 10:33:51;;;;;;;33.65;15.43;;;;;;;6.15;66.59;100597.03;4514436;31;33246;-72
2022/12/02 10:36:40;;;;;;;31.90;15.68;;;;;;;6.64;65.13;100604.91;4512797;31;33994;-73
2022/12/02 10:39:19;;;;;;;28.95;14.13;;;;;;;6.97;64.25;100595.25;4502683;31;34640;-72
2022/12/02 10:41:48;;;;;;;29.10;15.02;;;;;;;6.83;64.31;100592.56;4515171;31;33850;-72
2022/12/02 10:44:20;;;;;;;28.12;14.73;;;;;;;6.66;65.28;100595.59;4507022;31;34433;-72
2022/12/02 10:46:47;;;;;;;29.67;13.30;;;;;;;6.72;65.15;100601.19;4511132;31;34507;-72
2022/12/02 10:49:31;;;;;;;30.92;14.68;;;;;;;6.69;65.44;100599.31;4502056;31;33652;-72
2022/12/02 10:52:01;;;;;;;29.83;15.40;;;;;;;6.59;66.17;100596.84;4501102;31;33890;-72
2022/12/02 10:54:31;;;;;;;29.48;14.90;;;;;;;6.65;66.21;100592.16;4508482;31;33236;-72
2022/12/02 10:57:12;;;;;;;30.52;17.12;;;;;;;6.85;65.48;100585.84;4500382;31;33670;-72
2022/12/02 10:59:40;;;;;;;24.87;13.95;;;;;;;6.70;65.81;100592.47;4502533;31;34637;-72
2022/12/02 11:02:37;;;;;;;29.25;14.20;;;;;;;6.46;66.75;100589.00;4501402;31;34002;-72
2022/12/02 11:05:23;;;;;;;31.95;15.82;;;;;;;6.68;66.20;100592.38;4501556;31;33700;-72
2022/12/02 11:07:59;;;;;;;29.63;15.15;;;;;;;6.58;66.59;100589.00;4510996;31;33427;-72
2022/12/02 11:10:38;;;;;;;34.10;17.10;;;;;;;6.59;66.66;100591.69;4506844;31;33766;-72
2022/12/02 11:13:11;;;;;;;29.63;16.23;;;;;;;6.30;68.00;100576.69;4502752;31;34573;-72
2022/12/02 11:15:42;;;;;;;32.22;15.73;;;;;;;6.35;68.37;100582.16;4506383;31;32938;-72
2022/12/02 11:18:22;;;;;;;32.17;16.20;;;;;;;6.57;67.75;100582.09;4510309;31;35320;-72
2022/12/02 11:21:11;;;;;;;34.05;16.17;;;;;;;6.50;67.81;100583.31;4513948;31;33963;-72
2022/12/02 11:23:40;;;;;;;30.12;15.38;;;;;;;6.40;68.25;100581.72;4512972;31;33666;-72
2022/12/02 11:26:12;;;;;;;31.98;15.80;;;;;;;6.30;68.61;100576.69;4513832;31;33525;-72
2022/12/02 11:29:03;;;;;;;31.77;16.10;;;;;;;7.05;66.26;100577.00;4506523;31;33494;-72
2022/12/02 11:31:31;;;;;;;33.67;15.68;;;;;;;7.14;65.75;100581.00;4510563;31;33989;-72
2022/12/02 11:34:01;;;;;;;33.42;17.30;;;;;;;6.59;68.02;100580.53;4517519;31;33773;-72